createdAt,value
2022-10-11T00:01:08.637Z,17.53
2022-10-11T00:03:36.478Z,18.29
2022-10-11T00:06:06.102Z,19.57
2022-10-11T00:08:34.406Z,16.99
2022-10-11T00:11:05.811Z,17.88
2022-10-11T00:13:34.255Z,18.38
2022-10-11T00:16:02.639Z,19.21
2022-10-11T00:18:30.677Z,19.00
2022-10-11T00:21:03.031Z,18.73
2022-10-11T00:23:30.794Z,19.98
2022-10-11T00:25:59.700Z,17.82
2022-10-11T00:28:29.113Z,19.08
2022-10-11T00:30:57.488Z,18.08
2022-10-11T00:33:25.220Z,18.31
2022-10-11T00:35:53.031Z,18.93
2022-10-11T00:38:20.999Z,18.35
2022-10-11T00:40:48.746Z,19.27
2022-10-11T00:43:18.009Z,18.38
2022-10-11T00:46:06.540Z,17.87
2022-10-11T00:48:42.382Z,18.33
2022-10-11T00:51:16.679Z,18.09
2022-10-11T00:53:44.788Z,19.15
2022-10-11T00:56:16.298Z,18.83
2022-10-11T00:58:44.208Z,18.60
2022-10-11T01:01:13.423Z,18.97
2022-10-11T01:03:41.697Z,19.72
2022-10-11T01:06:10.138Z,17.20
2022-10-11T01:08:38.049Z,18.09
2022-10-11T01:11:06.064Z,17.96
2022-10-11T01:13:44.387Z,17.79
2022-10-11T01:16:16.763Z,17.67
2022-10-11T01:18:49.992Z,19.31
2022-10-11T01:21:27.373Z,18.95
2022-10-11T01:24:21.858Z,18.20
2022-10-11T01:27:25.534Z,19.75
2022-10-11T01:30:03.613Z,19.37
2022-10-11T01:32:35.681Z,18.76
2022-10-11T01:35:07.691Z,18.80
2022-10-11T01:37:38.143Z,18.42
2022-10-11T01:40:10.045Z,19.59
2022-10-11T01:42:39.687Z,19.03
2022-10-11T01:45:09.669Z,18.59
2022-10-11T01:47:39.065Z,19.38
2022-10-11T01:50:09.196Z,18.77
2022-10-11T01:52:38.317Z,19.44
2022-10-11T01:55:14.939Z,19.86
2022-10-11T01:57:49.242Z,19.94
2022-10-11T02:00:18.360Z,19.76
2022-10-11T02:02:54.175Z,19.31
2022-10-11T02:05:27.358Z,18.75
2022-10-11T02:08:00.251Z,19.60
2022-10-11T02:10:33.665Z,19.16
2022-10-11T02:13:05.031Z,19.16
2022-10-11T02:15:34.090Z,17.81
2022-10-11T02:18:07.306Z,18.41
2022-10-11T02:20:35.722Z,18.81
2022-10-11T02:23:07.049Z,18.63
2022-10-11T02:25:36.537Z,18.88
2022-10-11T02:28:07.704Z,18.94
2022-10-11T02:30:36.710Z,19.32
2022-10-11T02:33:07.709Z,19.37
2022-10-11T02:35:39.466Z,18.43
2022-10-11T02:38:11.778Z,18.69
2022-10-11T02:40:42.125Z,18.66
2022-10-11T02:43:13.728Z,18.36
2022-10-11T02:45:44.197Z,18.39
2022-10-11T02:48:13.641Z,18.07
2022-10-11T02:50:42.827Z,17.93
2022-10-11T02:53:11.096Z,18.61
2022-10-11T02:55:38.886Z,18.36
2022-10-11T02:58:06.650Z,18.12
2022-10-11T03:00:34.441Z,18.07
2022-10-11T03:03:02.247Z,17.71
2022-10-11T03:05:32.565Z,18.02
2022-10-11T03:08:00.303Z,17.50
2022-10-11T03:10:28.638Z,17.60
2022-10-11T03:12:56.631Z,17.38
2022-10-11T03:15:24.431Z,17.00
2022-10-11T03:17:52.120Z,17.48
2022-10-11T03:20:19.967Z,17.90
2022-10-11T03:22:49.021Z,17.14
2022-10-11T03:25:17.209Z,17.14
2022-10-11T03:27:44.938Z,16.72
2022-10-11T03:30:17.910Z,16.12
2022-10-11T03:32:46.018Z,16.96
2022-10-11T03:35:13.802Z,16.75
2022-10-11T03:37:41.724Z,16.91
2022-10-11T03:40:12.222Z,18.00
2022-10-11T03:42:40.397Z,17.77
2022-10-11T03:45:09.812Z,17.93
2022-10-11T03:47:38.738Z,17.68
2022-10-11T03:50:07.467Z,17.83
2022-10-11T03:52:35.394Z,16.92
2022-10-11T03:55:03.448Z,16.93
2022-10-11T03:57:32.540Z,17.39
2022-10-11T04:00:00.301Z,17.09
2022-10-11T04:02:28.512Z,17.40
2022-10-11T04:04:56.608Z,17.46
2022-10-11T04:07:24.290Z,18.00
2022-10-11T04:09:52.803Z,17.22
2022-10-11T04:12:20.646Z,19.22
2022-10-11T04:14:49.788Z,18.87
2022-10-11T04:17:17.505Z,19.37
2022-10-11T04:19:45.265Z,18.14
2022-10-11T04:22:13.979Z,17.71
2022-10-11T04:24:41.794Z,18.20
2022-10-11T04:27:09.588Z,18.32
2022-10-11T04:29:37.329Z,18.53
2022-10-11T04:32:06.872Z,18.24
2022-10-11T04:34:34.609Z,18.53
2022-10-11T04:37:02.809Z,17.52
2022-10-11T04:39:30.533Z,18.59
2022-10-11T04:41:58.645Z,17.91
2022-10-11T04:44:26.382Z,17.85
2022-10-11T04:46:54.085Z,17.73
2022-10-11T04:49:23.413Z,17.44
2022-10-11T04:51:51.172Z,16.97
2022-10-11T04:54:19.255Z,16.71
2022-10-11T04:56:47.795Z,17.31
2022-10-11T04:59:15.588Z,15.72
2022-10-11T05:01:43.403Z,15.99
2022-10-11T05:04:11.153Z,16.86
2022-10-11T05:06:40.284Z,16.88
2022-10-11T05:09:07.996Z,16.72
2022-10-11T05:11:35.791Z,16.90
2022-10-11T05:14:03.666Z,16.65
2022-10-11T05:16:31.435Z,16.25
2022-10-11T05:18:59.200Z,17.50
2022-10-11T05:21:28.234Z,16.65
2022-10-11T05:23:57.915Z,16.52
2022-10-11T05:26:27.404Z,17.16
2022-10-11T05:28:55.930Z,16.89
2022-10-11T05:31:24.099Z,16.31
2022-10-11T05:33:52.005Z,16.20
2022-10-11T05:36:19.734Z,16.96
2022-10-11T05:38:47.634Z,16.99
2022-10-11T05:41:17.245Z,16.37
2022-10-11T05:43:45.854Z,16.57
2022-10-11T05:46:13.722Z,16.55
2022-10-11T05:48:41.847Z,16.57
2022-10-11T05:51:10.801Z,16.70
2022-10-11T05:53:39.744Z,17.08
2022-10-11T05:56:20.279Z,17.45
2022-10-11T05:58:48.405Z,16.95
2022-10-11T06:01:20.782Z,16.68
2022-10-11T06:03:48.770Z,16.60
2022-10-11T06:06:17.020Z,17.60
2022-10-11T06:08:46.265Z,18.20
2022-10-11T06:11:16.449Z,17.90
2022-10-11T06:13:56.470Z,17.85
2022-10-11T06:16:25.362Z,17.96
2022-10-11T06:18:54.030Z,17.26
2022-10-11T06:21:21.911Z,17.67
2022-10-11T06:23:50.781Z,17.18
2022-10-11T06:26:19.177Z,17.48
2022-10-11T06:28:47.045Z,18.02
2022-10-11T06:31:16.162Z,16.78
2022-10-11T06:33:43.953Z,17.29
2022-10-11T06:36:13.404Z,17.13
2022-10-11T06:38:44.925Z,18.22
2022-10-11T06:41:14.442Z,17.98
2022-10-11T06:43:42.385Z,17.06
2022-10-11T06:46:10.228Z,17.26
2022-10-11T06:48:43.385Z,18.89
2022-10-11T06:51:11.233Z,18.06
2022-10-11T06:53:39.055Z,18.65
2022-10-11T06:56:11.711Z,18.65
2022-10-11T06:58:40.917Z,19.34
2022-10-11T07:01:10.601Z,18.59
2022-10-11T07:03:38.413Z,19.00
2022-10-11T07:06:10.065Z,19.63
2022-10-11T07:08:39.023Z,19.82
2022-10-11T07:11:08.987Z,18.32
2022-10-11T07:13:37.103Z,18.76
2022-10-11T07:16:06.033Z,19.19
2022-10-11T07:18:34.116Z,18.98
2022-10-11T07:21:04.327Z,18.88
2022-10-11T07:23:33.445Z,18.78
2022-10-11T07:26:02.183Z,20.34
2022-10-11T07:28:31.125Z,19.25
2022-10-11T07:30:59.961Z,18.61
2022-10-11T07:33:28.220Z,18.22
2022-10-11T07:35:58.699Z,18.20
2022-10-11T07:38:26.839Z,17.19
2022-10-11T07:40:55.954Z,17.99
2022-10-11T07:43:23.678Z,18.64
2022-10-11T07:45:54.286Z,17.45
2022-10-11T07:48:22.610Z,18.06
2022-10-11T07:50:50.440Z,16.91
2022-10-11T07:53:18.203Z,17.04
2022-10-11T07:55:46.017Z,17.39
2022-10-11T07:58:15.231Z,18.71
2022-10-11T08:00:43.291Z,17.85
2022-10-11T08:03:11.473Z,19.76
2022-10-11T08:05:39.453Z,19.55
2022-10-11T08:08:07.384Z,20.00
2022-10-11T08:10:38.464Z,19.98
2022-10-11T08:13:06.404Z,20.30
2022-10-11T08:15:35.507Z,19.14
2022-10-11T08:18:03.308Z,20.91
2022-10-11T08:20:33.120Z,20.57
2022-10-11T08:23:01.107Z,21.31
2022-10-11T08:25:29.882Z,20.31
2022-10-11T08:27:57.702Z,19.93
2022-10-11T08:30:25.474Z,19.77
2022-10-11T08:32:54.660Z,19.90
2022-10-11T08:35:22.377Z,20.29
2022-10-11T08:37:50.149Z,19.35
2022-10-11T08:40:19.507Z,19.72
2022-10-11T08:42:51.677Z,20.50
2022-10-11T08:45:30.495Z,22.14
2022-10-11T08:48:05.546Z,20.64
2022-10-11T08:50:33.330Z,20.47
2022-10-11T08:53:04.547Z,19.67
2022-10-11T08:55:37.253Z,20.72
2022-10-11T08:58:05.109Z,21.60
2022-10-11T09:00:34.793Z,21.95
2022-10-11T09:03:09.309Z,23.00
2022-10-11T09:05:45.053Z,22.45
2022-10-11T09:08:19.885Z,24.52
2022-10-11T09:10:56.798Z,23.63
2022-10-11T09:13:42.354Z,23.21
2022-10-11T09:16:17.206Z,22.98
2022-10-11T09:18:55.177Z,21.14
2022-10-11T09:21:29.679Z,22.03
2022-10-11T09:24:14.542Z,20.27
2022-10-11T09:26:49.456Z,20.98
2022-10-11T09:29:24.813Z,21.90
2022-10-11T09:31:55.214Z,21.19
2022-10-11T09:34:26.876Z,21.60
2022-10-11T09:36:57.309Z,22.25
2022-10-11T09:39:28.825Z,21.57
2022-10-11T09:41:59.878Z,20.48
2022-10-11T09:44:29.591Z,21.88
2022-10-11T09:46:58.373Z,22.07
2022-10-11T09:49:30.808Z,22.74
2022-10-11T09:52:00.483Z,19.81
2022-10-11T09:54:39.708Z,21.40
2022-10-11T09:57:08.229Z,22.73
2022-10-11T09:59:36.498Z,23.46
2022-10-11T10:02:21.125Z,22.45
2022-10-11T10:05:18.699Z,21.66
2022-10-11T10:08:04.709Z,22.96
2022-10-11T10:10:38.570Z,23.68
2022-10-11T10:13:07.979Z,23.80
2022-10-11T10:15:37.338Z,23.64
2022-10-11T10:18:10.455Z,22.18
2022-10-11T10:20:39.645Z,23.01
2022-10-11T10:23:10.958Z,21.72
2022-10-11T10:25:43.452Z,23.64
2022-10-11T10:28:21.983Z,24.07
2022-10-11T10:30:54.505Z,22.39
2022-10-11T10:33:24.345Z,23.23
2022-10-11T10:35:55.340Z,22.45
2022-10-11T10:38:27.673Z,22.19
2022-10-11T10:40:58.137Z,20.56
2022-10-11T10:43:27.641Z,22.55
2022-10-11T10:46:18.015Z,21.06
2022-10-11T10:51:49.387Z,22.64
2022-10-11T10:54:24.860Z,23.96
2022-10-11T10:56:54.725Z,26.06
2022-10-11T10:59:46.148Z,22.95
2022-10-11T11:02:38.973Z,24.43
2022-10-11T11:05:14.188Z,26.33
2022-10-11T11:07:45.378Z,24.66
2022-10-11T11:10:17.082Z,23.41
2022-10-11T11:12:47.443Z,23.80
2022-10-11T11:15:19.756Z,23.49
2022-10-11T11:17:59.161Z,21.31
2022-10-11T11:20:56.219Z,24.56
2022-10-11T11:23:31.753Z,21.06
2022-10-11T11:26:07.797Z,23.94
2022-10-11T11:28:44.829Z,23.92
2022-10-11T11:31:23.565Z,23.27
2022-10-11T11:33:59.134Z,22.90
2022-10-11T11:36:39.989Z,24.31
2022-10-11T11:39:14.756Z,23.79
2022-10-11T11:41:45.376Z,25.65
2022-10-11T11:44:17.562Z,24.52
2022-10-11T11:46:48.604Z,24.81
2022-10-11T11:49:20.577Z,23.27
2022-10-11T11:51:48.586Z,25.78
2022-10-11T11:54:28.145Z,25.90
2022-10-11T11:56:59.484Z,26.48
2022-10-11T11:59:33.248Z,26.53
2022-10-11T12:02:10.073Z,27.93
2022-10-11T12:04:39.231Z,27.61
2022-10-11T12:07:16.222Z,26.16
2022-10-11T12:09:50.396Z,24.48
2022-10-11T12:12:30.371Z,26.98
2022-10-11T12:15:13.111Z,27.42
2022-10-11T12:18:42.922Z,26.04
2022-10-11T12:21:21.231Z,25.38
2022-10-11T12:23:49.765Z,25.15
2022-10-11T12:26:46.400Z,24.41
2022-10-11T12:29:43.315Z,28.09
2022-10-11T12:32:53.425Z,25.19
2022-10-11T12:35:49.675Z,25.73
2022-10-11T12:38:21.881Z,24.11
2022-10-11T12:40:54.505Z,25.75
2022-10-11T12:43:37.208Z,22.80
2022-10-11T12:47:28.036Z,21.29
2022-10-11T12:50:08.686Z,22.61
2022-10-11T12:52:41.542Z,23.57
2022-10-11T12:55:45.093Z,24.06
2022-10-11T12:58:28.825Z,22.54
2022-10-11T13:01:36.179Z,21.30
2022-10-11T13:04:11.711Z,23.48
2022-10-11T13:06:46.627Z,23.82
2022-10-11T13:09:28.258Z,25.30
2022-10-11T13:11:58.696Z,29.49
2022-10-11T13:14:27.614Z,29.94
2022-10-11T13:17:05.419Z,32.09
2022-10-11T13:19:36.472Z,30.05
2022-10-11T13:22:07.763Z,30.25
2022-10-11T13:24:38.780Z,30.18
2022-10-11T13:27:07.688Z,27.37
2022-10-11T13:29:38.497Z,28.91
2022-10-11T13:32:09.318Z,29.76
2022-10-11T13:34:40.419Z,27.71
2022-10-11T13:37:08.999Z,26.64
2022-10-11T13:39:39.205Z,26.54
2022-10-11T13:42:11.825Z,27.08
2022-10-11T13:44:40.274Z,27.54
2022-10-11T13:47:10.547Z,29.92
2022-10-11T13:49:39.960Z,31.03
2022-10-11T13:56:20.295Z,30.97
2022-10-11T13:58:48.469Z,31.36
2022-10-11T14:01:19.104Z,28.39
2022-10-11T14:04:29.345Z,28.00
2022-10-11T14:07:29.761Z,28.61
2022-10-11T14:10:40.588Z,29.54
2022-10-11T14:13:24.759Z,26.53
2022-10-11T14:16:06.456Z,27.34
2022-10-11T14:18:48.767Z,27.11
2022-10-11T14:21:27.879Z,24.33
2022-10-11T14:24:01.578Z,23.20
2022-10-11T14:26:37.810Z,21.90
2022-10-11T14:29:08.952Z,21.19
2022-10-11T14:31:41.783Z,22.96
2022-10-11T14:34:16.039Z,23.25
2022-10-11T14:36:43.802Z,24.99
2022-10-11T14:39:15.523Z,25.29
2022-10-11T14:41:43.702Z,26.29
2022-10-11T14:44:11.605Z,25.11
2022-10-11T14:46:40.859Z,25.25
2022-10-11T14:49:14.459Z,24.93
2022-10-11T14:51:42.770Z,24.47
2022-10-11T14:54:10.785Z,24.68
2022-10-11T14:56:39.998Z,26.42
2022-10-11T14:59:07.966Z,28.96
2022-10-11T15:01:35.774Z,28.64
2022-10-11T15:04:03.532Z,30.11
2022-10-11T15:06:34.539Z,29.74
2022-10-11T15:09:02.326Z,29.47
2022-10-11T15:11:30.087Z,30.64
2022-10-11T15:13:59.717Z,29.80
2022-10-11T15:17:23.707Z,29.20
2022-10-11T15:20:09.343Z,30.16
2022-10-11T15:22:40.068Z,30.62
2022-10-11T15:25:11.282Z,31.37
2022-10-11T15:27:39.088Z,30.52
2022-10-11T15:30:18.234Z,28.76
2022-10-11T15:36:53.344Z,29.49
2022-10-11T15:39:31.490Z,29.36
2022-10-11T15:41:59.587Z,29.39
2022-10-11T15:44:27.470Z,28.56
2022-10-11T15:46:56.576Z,28.53
2022-10-11T15:49:24.345Z,26.81
2022-10-11T15:51:52.088Z,25.59
2022-10-11T15:54:24.213Z,24.72
2022-10-11T15:56:56.864Z,24.05
2022-10-11T15:59:24.573Z,23.84
2022-10-11T16:01:52.383Z,23.53
2022-10-11T16:04:21.556Z,23.25
2022-10-11T16:06:49.271Z,23.44
2022-10-11T16:09:17.112Z,23.55
2022-10-11T16:11:44.962Z,21.90
2022-10-11T16:14:12.662Z,21.43
2022-10-11T16:16:43.441Z,20.60
2022-10-11T16:19:11.999Z,21.10
2022-10-11T16:21:41.091Z,20.31
2022-10-11T16:24:08.968Z,20.33
2022-10-11T16:29:32.013Z,18.92
2022-10-11T16:32:02.999Z,19.49
2022-10-11T16:34:30.738Z,19.43
2022-10-11T16:36:59.855Z,20.28
2022-10-11T16:39:31.061Z,20.71
2022-10-11T16:41:58.879Z,20.23
2022-10-11T16:44:27.887Z,19.68
2022-10-11T16:46:56.621Z,19.90
2022-10-11T16:49:26.107Z,19.46
2022-10-11T16:51:55.638Z,18.97
2022-10-11T16:54:24.771Z,18.77
2022-10-11T16:56:52.530Z,19.59
2022-10-11T16:59:20.896Z,19.01
2022-10-11T17:01:49.096Z,18.89
2022-10-11T17:04:16.853Z,18.30
2022-10-11T17:06:44.886Z,18.89
2022-10-11T17:09:12.706Z,20.58
2022-10-11T17:11:41.945Z,20.85
2022-10-11T17:14:10.232Z,20.66
2022-10-11T17:16:38.006Z,20.42
2022-10-11T17:19:06.142Z,20.45
2022-10-11T17:21:33.962Z,20.27
2022-10-11T17:24:01.747Z,20.52
2022-10-11T17:26:29.510Z,19.69
2022-10-11T17:28:59.628Z,19.68
2022-10-11T17:31:28.098Z,19.38
2022-10-11T17:33:56.247Z,19.38
2022-10-11T17:36:25.313Z,19.45
2022-10-11T17:38:53.409Z,19.39
2022-10-11T17:41:21.758Z,19.58
2022-10-11T17:43:49.453Z,19.15
2022-10-11T17:46:22.195Z,18.67
2022-10-11T17:48:50.249Z,19.19
2022-10-11T17:51:20.018Z,19.05
2022-10-11T17:53:50.792Z,18.98
2022-10-11T17:56:23.948Z,18.94
2022-10-11T18:00:25.019Z,19.19
2022-10-11T18:02:53.475Z,19.10
2022-10-11T18:05:21.703Z,18.98
2022-10-11T18:07:53.360Z,18.15
2022-10-11T18:10:21.353Z,18.70
2022-10-11T18:12:49.184Z,19.13
2022-10-11T18:15:39.482Z,19.01
2022-10-11T18:18:11.619Z,19.05
2022-10-11T18:20:39.462Z,18.97
2022-10-11T18:23:16.261Z,18.77
2022-10-11T18:25:44.159Z,18.87
2022-10-11T18:31:59.227Z,19.04
2022-10-11T18:34:56.601Z,18.53
2022-10-11T18:37:24.431Z,18.54
2022-10-11T18:39:52.150Z,18.40
2022-10-11T18:42:20.354Z,18.19
2022-10-11T18:44:50.919Z,18.19
2022-10-11T18:47:18.974Z,18.23
2022-10-11T18:49:48.035Z,18.20
2022-10-11T18:52:15.999Z,17.50
2022-10-11T18:54:43.715Z,17.63
2022-10-11T18:57:11.584Z,17.81
2022-10-11T18:59:39.306Z,18.12
2022-10-11T19:02:07.233Z,18.02
2022-10-11T19:04:34.988Z,18.07
2022-10-11T19:07:04.268Z,17.98
2022-10-11T19:09:32.340Z,16.74
2022-10-11T19:12:00.119Z,17.52
2022-10-11T19:14:30.286Z,17.66
2022-10-11T19:16:58.805Z,17.57
2022-10-11T19:19:28.526Z,17.58
2022-10-11T19:21:56.614Z,17.25
2022-10-11T19:24:27.661Z,17.07
2022-10-11T19:27:01.218Z,17.12
2022-10-11T19:29:30.835Z,17.05
2022-10-11T19:32:00.548Z,17.48
2022-10-11T19:34:29.015Z,17.61
2022-10-11T19:36:57.556Z,17.52
2022-10-11T19:39:26.673Z,17.36
2022-10-11T19:41:54.689Z,17.26
2022-10-11T19:44:22.517Z,17.05
2022-10-11T19:46:52.109Z,17.12
2022-10-11T19:49:22.681Z,17.11
2022-10-11T19:51:50.669Z,17.08
2022-10-11T19:54:18.658Z,14.56
2022-10-11T19:56:48.174Z,13.94
2022-10-11T19:59:16.344Z,15.60
2022-10-11T20:01:49.413Z,16.69
2022-10-11T20:04:46.916Z,17.19
2022-10-11T20:07:06.765Z,17.41
2022-10-11T20:09:34.587Z,17.15
2022-10-11T20:12:03.686Z,17.06
2022-10-11T20:14:31.456Z,15.89
2022-10-11T20:16:59.191Z,16.66
2022-10-11T20:19:31.083Z,15.57
2022-10-11T20:21:59.419Z,14.79
2022-10-11T20:24:28.976Z,14.46
2022-10-11T20:26:56.779Z,13.77
2022-10-11T20:29:26.282Z,15.81
2022-10-11T20:31:54.017Z,16.29
2022-10-11T20:34:21.729Z,16.54
2022-10-11T20:36:49.590Z,16.75
2022-10-11T20:39:17.872Z,16.59
2022-10-11T20:41:45.611Z,15.00
2022-10-11T20:44:15.858Z,15.42
2022-10-11T20:46:44.952Z,15.09
2022-10-11T20:49:13.206Z,16.13
2022-10-11T20:51:42.649Z,16.09
2022-10-11T20:54:10.929Z,16.60
2022-10-11T20:56:39.148Z,16.28
2022-10-11T20:59:07.120Z,16.58
2022-10-11T21:01:37.073Z,16.45
2022-10-11T21:04:07.896Z,16.66
2022-10-11T21:06:35.852Z,16.31
2022-10-11T21:09:03.603Z,16.37
2022-10-11T21:11:33.626Z,16.41
2022-10-11T21:14:02.916Z,16.35
2022-10-11T21:16:30.883Z,16.46
2022-10-11T21:18:59.757Z,16.16
2022-10-11T21:21:29.625Z,15.88
2022-10-11T21:23:58.236Z,15.52
2022-10-11T21:26:26.276Z,15.79
2022-10-11T21:28:54.552Z,15.95
2022-10-11T21:31:23.556Z,16.33
2022-10-11T21:33:51.383Z,16.06
2022-10-11T21:36:20.875Z,15.87
2022-10-11T21:38:50.744Z,15.68
2022-10-11T21:41:19.876Z,15.81
2022-10-11T21:43:48.219Z,15.77
2022-10-11T21:46:17.832Z,15.80
2022-10-11T21:48:45.622Z,15.43
2022-10-11T21:51:17.120Z,16.04
2022-10-11T21:53:44.818Z,15.64
2022-10-11T21:56:13.921Z,15.51
2022-10-11T21:58:41.768Z,15.66
2022-10-11T22:01:09.670Z,15.25
2022-10-11T22:03:37.417Z,15.46
2022-10-11T22:06:05.368Z,15.56
2022-10-11T22:08:33.067Z,14.91
2022-10-11T22:11:01.708Z,15.40
2022-10-11T22:13:32.372Z,15.24
2022-10-11T22:16:03.557Z,14.72
2022-10-11T22:18:33.609Z,14.84
2022-10-11T22:21:06.140Z,15.35
2022-10-11T22:23:34.250Z,15.22
2022-10-11T22:26:05.979Z,14.47
2022-10-11T22:28:35.213Z,15.18
2022-10-11T22:31:03.317Z,15.19
2022-10-11T22:33:31.108Z,15.20
2022-10-11T22:36:00.406Z,15.36
2022-10-11T22:38:28.679Z,14.99
2022-10-11T22:40:58.888Z,15.69
2022-10-11T22:43:26.681Z,15.64
2022-10-11T22:45:55.722Z,15.48
2022-10-11T22:48:23.465Z,15.42
2022-10-11T22:50:51.291Z,15.36
2022-10-11T22:53:19.444Z,15.41
2022-10-11T22:55:47.670Z,15.46
2022-10-11T22:58:15.433Z,15.49
2022-10-11T23:00:43.550Z,15.38
2022-10-11T23:03:14.706Z,15.54
2022-10-11T23:05:42.529Z,15.61
2022-10-11T23:08:10.773Z,15.59
2022-10-11T23:10:39.311Z,15.36
2022-10-11T23:13:07.070Z,15.26
2022-10-11T23:15:34.847Z,14.02
2022-10-11T23:18:03.065Z,14.46
2022-10-11T23:20:32.240Z,14.86
2022-10-11T23:22:59.941Z,14.09
2022-10-11T23:25:27.677Z,14.74
2022-10-11T23:27:55.352Z,15.04
2022-10-11T23:30:23.064Z,15.60
2022-10-11T23:32:50.849Z,15.40
2022-10-11T23:35:18.553Z,15.12
2022-10-11T23:37:47.638Z,15.06
2022-10-11T23:40:15.941Z,15.25
2022-10-11T23:42:43.646Z,15.47
2022-10-11T23:45:11.684Z,15.45
2022-10-11T23:47:40.268Z,15.27
2022-10-11T23:50:09.333Z,14.91
2022-10-11T23:52:37.227Z,14.96
2022-10-11T23:55:06.892Z,14.81
2022-10-11T23:57:34.774Z,14.82
